Time;durP1;ratioP1;P1;durP2;ratioP2;P2;SDS_P1;SDS_P2;PMS_P1;PMS_P2;Temp;Humidity;BMP_temperature;BMP_pressure;BME280_temperature;BME280_humidity;BME280_pressure;Samples;Min_cycle;Max_cycle;Signal;HPM_P1;HPM_P2
2023/10/10 00:00:27;;;;;;;;;;;;;;;15.68;66.98;100376.53;1083906;47;1475;-78
2023/10/10 00:01:32;;;;;;;;;;;;;;;15.67;67.11;100373.00;1083945;47;1100;-77
2023/10/10 00:02:36;;;;;;;;;;;;;;;15.71;66.97;100373.50;1084082;46;1619;-77
2023/10/10 00:03:39;;;;;;;;;;;;;;;15.71;66.76;100379.72;1083897;47;1101;-77
2023/10/10 00:04:43;;;;;;;;;;;;;;;15.68;67.17;100376.53;1084030;54;1903;-78
2023/10/10 00:05:45;;;;;;;;;;;;;;;15.69;67.06;100386.28;1084033;47;1150;-78
2023/10/10 00:06:49;;;;;;;;;;;;;;;15.68;67.02;100385.44;1083941;54;1064;-77
2023/10/10 00:07:50;;;;;;;;;;;;;;;15.68;66.97;100382.75;1084163;47;1160;-76
2023/10/10 00:08:55;;;;;;;;;;;;;;;15.68;66.73;100385.44;1083728;54;1063;-78
2023/10/10 00:09:59;;;;;;;;;;;;;;;15.69;66.83;100383.59;1084089;54;1161;-77
2023/10/10 00:11:08;;;;;;;;;;;;;;;15.67;67.00;100389.16;1084223;47;1150;-77
2023/10/10 00:12:09;;;;;;;;;;;;;;;15.65;66.79;100385.78;1084661;47;1047;-77
2023/10/10 00:13:13;;;;;;;;;;;;;;;15.67;66.93;100388.31;1084808;47;1007;-77
2023/10/10 00:14:17;;;;;;;;;;;;;;;15.65;66.87;100379.56;1085672;54;1247;-78
2023/10/10 00:15:24;;;;;;;;;;;;;;;15.63;66.87;100387.81;1085576;54;1091;-76
2023/10/10 00:16:26;;;;;;;;;;;;;;;15.56;67.42;100386.81;1085486;47;1153;-77
2023/10/10 00:17:34;;;;;;;;;;;;;;;15.58;67.10;100387.50;1085514;54;1159;-77
2023/10/10 00:18:38;;;;;;;;;;;;;;;15.57;67.49;100391.19;1085564;47;944;-77
2023/10/10 00:19:45;;;;;;;;;;;;;;;15.55;67.52;100391.34;1086072;54;968;-77
2023/10/10 00:21:06;;;;;;;;;;;;;;;15.60;66.93;100391.69;1085038;54;1380;-77
2023/10/10 00:22:07;;;;;;;;;;;;;;;15.60;67.28;100396.22;1085214;47;1086;-77
2023/10/10 00:23:16;;;;;;;;;;;;;;;15.67;66.86;100391.00;1085300;54;1103;-78
2023/10/10 00:24:20;;;;;;;;;;;;;;;15.67;67.13;100397.25;1084871;54;1850;-76
2023/10/10 00:25:24;;;;;;;;;;;;;;;15.69;67.09;100383.59;1084957;47;1127;-78
2023/10/10 00:26:29;;;;;;;;;;;;;;;15.63;67.23;100387.81;1085633;54;1170;-77
2023/10/10 00:27:31;;;;;;;;;;;;;;;15.60;66.96;100388.16;1086450;54;1138;-77
2023/10/10 00:28:34;;;;;;;;;;;;;;;15.59;67.00;100386.47;1086321;47;1020;-77
2023/10/10 00:29:36;;;;;;;;;;;;;;;15.60;67.03;100388.16;1085551;54;1158;-78
2023/10/10 00:30:43;;;;;;;;;;;;;;;15.57;67.33;100383.94;1085510;47;1114;-78
2023/10/10 00:31:55;;;;;;;;;;;;;;;15.56;67.20;100376.03;1085247;54;1126;-78
2023/10/10 00:33:02;;;;;;;;;;;;;;;15.60;67.17;100385.44;1084635;47;1645;-77
2023/10/10 00:34:07;;;;;;;;;;;;;;;15.56;67.72;100390.34;1085026;47;1418;-77
2023/10/10 00:35:09;;;;;;;;;;;;;;;15.56;67.93;100378.72;1085476;54;1079;-79
2023/10/10 00:36:18;;;;;;;;;;;;;;;15.58;67.53;100382.94;1087769;54;1047;-79
2023/10/10 00:37:21;;;;;;;;;;;;;;;15.59;67.85;100375.69;1087260;47;968;-79
2023/10/10 00:38:26;;;;;;;;;;;;;;;15.54;68.14;100380.75;1086992;54;1364;-79
2023/10/10 00:39:31;;;;;;;;;;;;;;;15.53;68.31;100392.53;1086749;54;976;-79
2023/10/10 00:40:39;;;;;;;;;;;;;;;15.54;67.71;100384.28;1086712;47;1098;-79
2023/10/10 00:41:44;;;;;;;;;;;;;;;15.55;67.75;100380.56;1085734;47;1149;-79
2023/10/10 00:42:48;;;;;;;;;;;;;;;15.55;67.71;100379.75;1086261;47;1155;-78
2023/10/10 00:43:50;;;;;;;;;;;;;;;15.57;67.74;100393.91;1086148;54;1408;-79
2023/10/10 00:44:54;;;;;;;;;;;;;;;15.60;67.51;100377.38;1086376;47;1885;-79
2023/10/10 00:45:57;;;;;;;;;;;;;;;15.60;67.35;100383.63;1086151;54;1035;-78
2023/10/10 00:47:03;;;;;;;;;;;;;;;15.64;67.37;100383.25;1085912;47;1154;-79
2023/10/10 00:48:09;;;;;;;;;;;;;;;15.60;67.71;100382.75;1085914;47;1102;-79
2023/10/10 00:49:14;;;;;;;;;;;;;;;15.61;67.24;100384.44;1085998;47;1182;-79
2023/10/10 00:50:16;;;;;;;;;;;;;;;15.62;67.09;100386.13;1085939;54;1527;-78
2023/10/10 00:51:21;;;;;;;;;;;;;;;15.63;67.45;100389.69;1085807;47;1087;-79
2023/10/10 00:52:22;;;;;;;;;;;;;;;15.62;67.51;100396.91;1085870;47;1115;-79
2023/10/10 00:53:27;;;;;;;;;;;;;;;15.60;67.69;100390.84;1086070;54;1154;-78
2023/10/10 00:54:31;;;;;;;;;;;;;;;15.62;67.18;100382.59;1085895;47;1397;-79
2023/10/10 00:55:36;;;;;;;;;;;;;;;15.59;67.51;100383.75;1086051;54;1058;-79
2023/10/10 00:56:39;;;;;;;;;;;;;;;15.57;67.63;100391.19;1085997;47;958;-79
2023/10/10 00:57:43;;;;;;;;;;;;;;;15.56;67.28;100387.66;1086179;54;1460;-78
2023/10/10 00:58:46;;;;;;;;;;;;;;;15.57;67.39;100386.63;1086039;47;1380;-78
2023/10/10 00:59:54;;;;;;;;;;;;;;;15.47;68.52;100383.28;1085781;54;1035;-79
2023/10/10 01:00:55;;;;;;;;;;;;;;;15.46;68.23;100391.53;1085892;54;1370;-79
2023/10/10 01:01:56;;;;;;;;;;;;;;;15.37;69.28;100386.16;1085978;47;965;-79
2023/10/10 01:03:20;;;;;;;;;;;;;;;15.36;68.93;100383.59;1085734;54;1078;-79
2023/10/10 01:04:35;;;;;;;;;;;;;;;15.35;68.71;100387.34;1085948;54;1880;-78
2023/10/10 01:05:52;;;;;;;;;;;;;;;15.39;68.08;100386.81;1086141;54;1133;-79
2023/10/10 01:06:54;;;;;;;;;;;;;;;15.41;68.19;100383.94;1084731;54;1153;-78
2023/10/10 01:07:59;;;;;;;;;;;;;;;15.39;68.14;100388.66;1084736;47;1043;-79
2023/10/10 01:09:20;;;;;;;;;;;;;;;15.36;67.87;100384.47;1084845;54;1158;-80
2023/10/10 01:10:24;;;;;;;;;;;;;;;15.29;68.19;100380.75;1085020;47;1135;-79
2023/10/10 01:11:24;;;;;;;;;;;;;;;15.29;68.15;100383.44;1084974;47;1202;-79
2023/10/10 01:12:28;;;;;;;;;;;;;;;15.28;68.52;100379.06;1084915;54;1569;-79
2023/10/10 01:13:33;;;;;;;;;;;;;;;15.32;68.62;100387.66;1084540;47;1402;-79
2023/10/10 01:14:38;;;;;;;;;;;;;;;15.34;68.23;100382.94;1084733;47;1371;-79
2023/10/10 01:15:43;;;;;;;;;;;;;;;15.34;68.14;100378.38;1084148;47;1574;-78
2023/10/10 01:16:47;;;;;;;;;;;;;;;15.34;67.96;100375.69;1084133;47;1166;-78
2023/10/10 01:17:48;;;;;;;;;;;;;;;15.35;68.17;100371.16;1084078;47;1528;-79
2023/10/10 01:18:57;;;;;;;;;;;;;;;15.35;68.10;100369.31;1084296;47;1505;-79
2023/10/10 01:20:14;;;;;;;;;;;;;;;15.38;68.15;100374.38;1084093;54;1146;-78
2023/10/10 01:21:30;;;;;;;;;;;;;;;15.40;68.40;100369.63;1084405;54;994;-78
2023/10/10 01:22:39;;;;;;;;;;;;;;;15.41;68.01;100376.69;1084202;47;1485;-79
2023/10/10 01:23:45;;;;;;;;;;;;;;;15.39;67.95;100365.28;1084096;47;1624;-78
2023/10/10 01:24:45;;;;;;;;;;;;;;;15.31;68.55;100370.63;1083938;47;1858;-77
2023/10/10 01:25:52;;;;;;;;;;;;;;;15.24;68.41;100366.94;1084377;54;1498;-78
2023/10/10 01:26:55;;;;;;;;;;;;;;;15.13;68.83;100360.88;1084681;54;1524;-77
2023/10/10 01:28:02;;;;;;;;;;;;;;;15.11;69.12;100364.75;1084090;47;1158;-78
2023/10/10 01:29:13;;;;;;;;;;;;;;;15.12;68.97;100361.88;1084944;54;1140;-78
2023/10/10 01:30:19;;;;;;;;;;;;;;;15.11;69.57;100362.06;1084667;54;1186;-78
2023/10/10 01:31:19;;;;;;;;;;;;;;;15.11;69.39;100362.06;1085332;54;1087;-78
2023/10/10 01:32:23;;;;;;;;;;;;;;;15.08;69.61;100362.38;1084400;47;1119;-77
2023/10/10 01:33:26;;;;;;;;;;;;;;;15.09;69.53;100361.38;1084674;47;1153;-77
2023/10/10 01:34:43;;;;;;;;;;;;;;;15.12;69.38;100363.75;1085067;54;1369;-78
2023/10/10 01:35:44;;;;;;;;;;;;;;;15.15;69.07;100362.56;1085341;54;1426;-78
2023/10/10 01:36:50;;;;;;;;;;;;;;;15.17;68.86;100363.25;1085122;54;1130;-79
2023/10/10 01:37:55;;;;;;;;;;;;;;;15.12;68.90;100369.94;1085290;47;1156;-77
2023/10/10 01:39:08;;;;;;;;;;;;;;;15.07;69.02;100366.06;1085531;54;1161;-78
2023/10/10 01:40:16;;;;;;;;;;;;;;;14.93;69.91;100364.88;1085317;54;1132;-78
2023/10/10 01:41:23;;;;;;;;;;;;;;;14.84;70.18;100355.97;1084768;54;1591;-78
2023/10/10 01:42:31;;;;;;;;;;;;;;;14.79;70.31;100359.16;1083957;54;1218;-78
2023/10/10 01:43:32;;;;;;;;;;;;;;;14.72;70.42;100359.97;1084712;54;1015;-77
2023/10/10 01:44:37;;;;;;;;;;;;;;;14.69;70.75;100354.94;1084952;54;1920;-76
2023/10/10 01:45:41;;;;;;;;;;;;;;;14.65;70.96;100359.72;1084246;54;1537;-78
2023/10/10 01:46:44;;;;;;;;;;;;;;;14.61;71.14;100355.69;1084837;47;1414;-77
2023/10/10 01:47:56;;;;;;;;;;;;;;;14.53;71.13;100359.19;1084633;54;1060;-77
2023/10/10 01:49:01;;;;;;;;;;;;;;;14.50;71.66;100359.50;1084959;54;1539;-78
2023/10/10 01:50:07;;;;;;;;;;;;;;;14.47;71.80;100359.88;1084745;47;1027;-78
2023/10/10 01:51:11;;;;;;;;;;;;;;;14.44;71.69;100361.03;1084495;47;1087;-78
2023/10/10 01:52:17;;;;;;;;;;;;;;;14.41;71.94;100350.59;1084173;47;1479;-77
2023/10/10 01:53:21;;;;;;;;;;;;;;;14.38;71.88;100356.28;1084990;54;1418;-77
2023/10/10 01:54:22;;;;;;;;;;;;;;;14.34;72.31;100355.78;1084562;47;1362;-78
2023/10/10 01:55:26;;;;;;;;;;;;;;;14.31;72.48;100358.78;1084363;47;1172;-77
2023/10/10 01:56:27;;;;;;;;;;;;;;;14.30;72.56;100350.88;1084019;54;1188;-78
2023/10/10 01:57:30;;;;;;;;;;;;;;;14.28;72.55;100351.06;1084959;47;1217;-79
2023/10/10 01:58:31;;;;;;;;;;;;;;;14.22;72.84;100351.69;1084970;54;1648;-78
2023/10/10 01:59:35;;;;;;;;;;;;;;;14.22;72.75;100356.22;1084943;46;1176;-78
2023/10/10 02:00:41;;;;;;;;;;;;;;;14.19;72.68;100352.84;1084494;47;1067;-79
2023/10/10 02:01:43;;;;;;;;;;;;;;;14.16;72.73;100353.19;1083855;47;1138;-77
2023/10/10 02:02:49;;;;;;;;;;;;;;;14.13;72.94;100352.66;1084902;54;1142;-77
2023/10/10 02:03:51;;;;;;;;;;;;;;;14.08;73.33;100350.44;1084344;47;1312;-77
2023/10/10 02:04:59;;;;;;;;;;;;;;;14.05;73.81;100350.78;1084752;54;1925;-78
2023/10/10 02:05:59;;;;;;;;;;;;;;;14.02;73.94;100351.09;1087230;54;1189;-79
2023/10/10 02:07:04;;;;;;;;;;;;;;;14.01;73.47;100347.56;1085873;47;982;-77
2023/10/10 02:08:16;;;;;;;;;;;;;;;13.98;73.66;100355.13;1085687;47;1426;-78
2023/10/10 02:09:27;;;;;;;;;;;;;;;13.98;73.66;100355.94;1086171;54;1106;-78
2023/10/10 02:10:32;;;;;;;;;;;;;;;13.95;73.79;100355.41;1087005;54;951;-77
2023/10/10 02:11:33;;;;;;;;;;;;;;;13.94;73.62;100349.19;1086241;54;995;-78
2023/10/10 02:12:35;;;;;;;;;;;;;;;13.97;73.55;100353.44;1086363;54;1569;-78
2023/10/10 02:13:39;;;;;;;;;;;;;;;13.96;73.63;100347.19;1087450;54;1058;-78
2023/10/10 02:14:43;;;;;;;;;;;;;;;13.95;73.38;100355.41;1086669;47;1289;-78
2023/10/10 02:15:46;;;;;;;;;;;;;;;13.94;73.37;100353.72;1087589;47;1086;-77
2023/10/10 02:16:48;;;;;;;;;;;;;;;13.94;73.39;100349.19;1088300;54;958;-77
2023/10/10 02:17:54;;;;;;;;;;;;;;;13.97;73.67;100358.81;1088522;54;1110;-77
2023/10/10 02:18:59;;;;;;;;;;;;;;;13.96;73.39;100357.09;1088345;54;1081;-77
2023/10/10 02:19:59;;;;;;;;;;;;;;;13.96;73.50;100363.31;1087512;54;1379;-78
2023/10/10 02:21:06;;;;;;;;;;;;;;;13.97;73.21;100356.09;1086990;47;1039;-78
2023/10/10 02:22:19;;;;;;;;;;;;;;;13.95;73.52;100360.78;1087106;54;984;-77
2023/10/10 02:23:34;;;;;;;;;;;;;;;13.86;73.61;100360.75;1087656;47;1007;-78
2023/10/10 02:24:39;;;;;;;;;;;;;;;13.87;73.43;100369.66;1087577;54;1376;-78
2023/10/10 02:25:40;;;;;;;;;;;;;;;13.84;73.39;100369.94;1087472;46;1186;-78
2023/10/10 02:26:43;;;;;;;;;;;;;;;13.82;73.43;100366.59;1087712;54;1086;-78
2023/10/10 02:27:55;;;;;;;;;;;;;;;13.81;73.68;100360.38;1087781;54;994;-78
2023/10/10 02:29:16;;;;;;;;;;;;;;;13.80;73.29;100364.06;1087624;54;1050;-78
2023/10/10 02:30:22;;;;;;;;;;;;;;;13.82;73.26;100367.44;1087806;46;917;-78
2023/10/10 02:31:28;;;;;;;;;;;;;;;13.80;73.55;100369.44;1087403;47;952;-78
2023/10/10 02:32:29;;;;;;;;;;;;;;;13.82;73.45;100372.81;1086350;54;1121;-79
2023/10/10 02:33:31;;;;;;;;;;;;;;;13.83;73.39;100369.13;1086458;47;1060;-78
2023/10/10 02:34:36;;;;;;;;;;;;;;;13.82;73.12;100366.59;1086675;46;1401;-78
2023/10/10 02:35:47;;;;;;;;;;;;;;;13.81;73.49;100360.38;1087118;47;1078;-78
2023/10/10 02:37:09;;;;;;;;;;;;;;;13.78;73.56;100363.38;1086960;54;939;-78
2023/10/10 02:38:12;;;;;;;;;;;;;;;13.73;73.78;100358.50;1087046;47;1041;-78
2023/10/10 02:39:29;;;;;;;;;;;;;;;13.76;73.60;100365.38;1087076;54;1016;-78
2023/10/10 02:40:31;;;;;;;;;;;;;;;13.78;73.41;100367.91;1086513;46;1398;-78
2023/10/10 02:41:38;;;;;;;;;;;;;;;13.76;73.32;100365.38;1086209;47;1016;-79
2023/10/10 02:42:49;;;;;;;;;;;;;;;13.76;73.61;100365.38;1085646;54;1320;-78
2023/10/10 02:43:56;;;;;;;;;;;;;;;13.76;73.61;100368.06;1086340;54;1388;-77
2023/10/10 02:44:59;;;;;;;;;;;;;;;13.75;73.30;100358.31;1087138;54;1872;-78
2023/10/10 02:46:00;;;;;;;;;;;;;;;13.76;73.56;100365.38;1087316;54;1066;-78
2023/10/10 02:47:04;;;;;;;;;;;;;;;13.76;73.65;100369.91;1086071;47;953;-78
2023/10/10 02:48:07;;;;;;;;;;;;;;;13.77;73.52;100364.38;1085866;54;1389;-79
2023/10/10 02:49:22;;;;;;;;;;;;;;;13.75;73.36;100355.63;1085830;54;1007;-78
2023/10/10 02:51:43;;;;;;;;;;;;;;;13.78;73.58;100362.53;1086377;47;983;-78
2023/10/10 02:52:45;;;;;;;;;;;;;;;13.78;73.38;100363.38;1087357;47;1082;-78
2023/10/10 02:53:50;;;;;;;;;;;;;;;13.81;73.43;100360.38;1086841;54;1119;-78
2023/10/10 02:54:54;;;;;;;;;;;;;;;13.85;73.46;100361.75;1085422;54;1030;-78
2023/10/10 02:56:01;;;;;;;;;;;;;;;13.85;73.56;100360.88;1085560;47;1361;-78
2023/10/10 02:58:28;;;;;;;;;;;;;;;13.86;73.81;100360.75;1087212;47;1019;-78
2023/10/10 02:59:31;;;;;;;;;;;;;;;13.90;73.18;100358.59;1087297;54;1073;-78
2023/10/10 03:00:35;;;;;;;;;;;;;;;13.93;72.95;100363.66;1087071;47;1047;-78
2023/10/10 03:01:55;;;;;;;;;;;;;;;13.89;73.79;100368.47;1087387;54;1083;-77
2023/10/10 03:03:02;;;;;;;;;;;;;;;13.93;73.80;100362.78;1087295;54;1034;-77
2023/10/10 03:04:03;;;;;;;;;;;;;;;13.97;73.78;100367.69;1087106;54;1251;-78
2023/10/10 03:05:14;;;;;;;;;;;;;;;13.96;73.75;100362.47;1085497;47;1902;-78
2023/10/10 03:06:18;;;;;;;;;;;;;;;13.97;74.02;100365.00;1085925;47;987;-78
2023/10/10 03:07:20;;;;;;;;;;;;;;;13.92;75.16;100363.78;1084927;47;1359;-77
2023/10/10 03:08:37;;;;;;;;;;;;;;;13.91;74.89;100373.72;1085622;54;1150;-78
2023/10/10 03:10:06;;;;;;;;;;;;;;;13.87;75.56;100367.81;1085818;54;1111;-77
2023/10/10 03:11:34;;;;;;;;;;;;;;;13.87;75.39;100375.88;1086197;47;904;-78
2023/10/10 03:12:29;;;;;;;;;;;;;;;13.85;75.60;100368.94;1084664;47;1430;-77
2023/10/10 03:13:45;;;;;;;;;;;;;;;13.82;76.08;100364.75;1085846;54;1103;-78
2023/10/10 03:14:53;;;;;;;;;;;;;;;13.81;75.77;100365.75;1085633;47;1333;-78
2023/10/10 03:16:10;;;;;;;;;;;;;;;13.82;75.63;100364.75;1084858;47;1131;-77
2023/10/10 03:17:31;;;;;;;;;;;;;;;13.75;76.69;100363.69;1083812;47;1154;-77
2023/10/10 03:18:36;;;;;;;;;;;;;;;13.79;75.63;100369.59;1084075;47;1047;-77
2023/10/10 03:19:38;;;;;;;;;;;;;;;13.80;75.73;100369.44;1084784;47;1537;-77
2023/10/10 03:20:50;;;;;;;;;;;;;;;13.82;75.86;100380.03;1084642;54;1173;-78
2023/10/10 03:22:19;;;;;;;;;;;;;;;13.82;75.85;100378.19;1084401;47;1390;-78
2023/10/10 03:23:24;;;;;;;;;;;;;;;13.79;75.58;100369.59;1084283;47;920;-77
2023/10/10 03:24:50;;;;;;;;;;;;;;;13.79;75.28;100375.78;1084812;54;1292;-77
2023/10/10 03:25:52;;;;;;;;;;;;;;;13.76;75.94;100384.19;1083840;47;1892;-77
2023/10/10 03:27:37;;;;;;;;;;;;;;;13.74;76.19;100375.44;1084885;47;1040;-77
2023/10/10 03:28:30;;;;;;;;;;;;;;;13.75;75.96;100371.75;1084027;46;1036;-78
2023/10/10 03:29:37;;;;;;;;;;;;;;;13.76;75.86;100367.22;1084582;47;1542;-77
2023/10/10 03:30:50;;;;;;;;;;;;;;;13.78;75.62;100373.28;1084565;47;963;-78
2023/10/10 03:32:19;;;;;;;;;;;;;;;13.81;75.74;100370.28;1084846;47;1480;-77
2023/10/10 03:33:35;;;;;;;;;;;;;;;13.81;75.44;100371.13;1083946;47;1047;-77
2023/10/10 03:34:44;;;;;;;;;;;;;;;13.82;75.20;100369.28;1083716;47;1264;-77
2023/10/10 03:36:07;;;;;;;;;;;;;;;13.82;75.39;100370.13;1083518;46;1066;-77
2023/10/10 03:37:20;;;;;;;;;;;;;;;13.80;75.57;100363.22;1083137;47;1186;-79
2023/10/10 03:38:43;;;;;;;;;;;;;;;13.80;75.61;100368.59;1083657;47;1148;-77
2023/10/10 03:39:49;;;;;;;;;;;;;;;13.79;75.54;100369.59;1084019;54;1618;-78
2023/10/10 05:24:24;;;;;;;;;;;;;;;12.45;78.46;100379.22;1084222;47;1372;-78
2023/10/10 05:25:25;;;;;;;;;;;;;;;12.45;78.46;100387.28;1083582;54;1936;-78
